createdAt,value
2022-10-06T00:00:53.394Z,0.70
2022-10-06T00:03:41.510Z,0.80
2022-10-06T00:06:28.604Z,0.77
2022-10-06T00:09:15.769Z,0.83
2022-10-06T00:12:02.888Z,0.70
2022-10-06T00:14:49.814Z,1.10
2022-10-06T00:17:36.966Z,0.73
2022-10-06T00:20:26.021Z,0.63
2022-10-06T00:23:12.984Z,1.00
2022-10-06T00:26:00.021Z,0.80
2022-10-06T00:28:48.077Z,1.00
2022-10-06T00:31:35.170Z,0.90
2022-10-06T00:34:22.189Z,0.80
2022-10-06T00:37:09.157Z,0.60
2022-10-06T00:39:56.152Z,0.80
2022-10-06T00:43:00.925Z,0.73
2022-10-06T00:45:49.455Z,0.80
2022-10-06T00:48:36.871Z,0.80
2022-10-06T00:51:24.063Z,0.80
2022-10-06T00:54:12.617Z,1.10
2022-10-06T00:56:59.975Z,1.23
2022-10-06T00:59:47.440Z,0.70
2022-10-06T01:02:59.368Z,1.00
2022-10-06T01:05:51.885Z,1.00
2022-10-06T01:08:39.728Z,0.83
2022-10-06T01:11:26.720Z,0.77
2022-10-06T01:14:14.750Z,0.77
2022-10-06T01:17:31.543Z,1.00
2022-10-06T01:20:20.768Z,0.80
2022-10-06T01:23:10.304Z,0.90
2022-10-06T01:25:58.564Z,0.70
2022-10-06T01:28:46.217Z,1.00
2022-10-06T01:31:34.062Z,0.70
2022-10-06T01:34:21.097Z,1.13
2022-10-06T01:37:08.081Z,0.90
2022-10-06T01:39:55.062Z,1.00
2022-10-06T01:42:42.034Z,0.83
2022-10-06T01:45:29.092Z,0.97
2022-10-06T01:48:16.029Z,1.43
2022-10-06T01:51:03.467Z,0.90
2022-10-06T01:53:50.415Z,1.20
2022-10-06T01:56:37.336Z,0.90
2022-10-06T01:59:24.797Z,1.20
2022-10-06T02:02:11.865Z,1.27
2022-10-06T02:04:59.293Z,1.53
2022-10-06T02:07:46.229Z,1.20
2022-10-06T02:10:33.255Z,1.37
2022-10-06T02:13:21.494Z,1.80
2022-10-06T02:16:09.435Z,1.40
2022-10-06T02:18:56.510Z,2.10
2022-10-06T02:21:43.509Z,1.80
2022-10-06T02:24:30.706Z,1.60
2022-10-06T02:27:17.697Z,1.77
2022-10-06T02:30:06.814Z,1.50
2022-10-06T02:32:55.870Z,1.40
2022-10-06T02:35:43.976Z,1.30
2022-10-06T02:38:32.671Z,1.80
2022-10-06T02:41:19.992Z,1.73
2022-10-06T02:44:07.042Z,1.67
2022-10-06T02:46:54.054Z,1.70
2022-10-06T02:49:41.066Z,1.83
2022-10-06T02:52:33.431Z,1.97
2022-10-06T02:55:20.390Z,1.60
2022-10-06T02:58:07.401Z,1.70
2022-10-06T03:00:54.529Z,1.43
2022-10-06T03:03:42.693Z,1.60
2022-10-06T03:06:31.475Z,2.20
2022-10-06T03:09:19.177Z,1.63
2022-10-06T03:12:06.389Z,1.83
2022-10-06T03:14:53.298Z,1.90
2022-10-06T03:17:40.301Z,1.77
2022-10-06T03:20:27.189Z,1.77
2022-10-06T03:23:14.228Z,1.90
2022-10-06T03:26:01.122Z,2.03
2022-10-06T03:28:48.697Z,1.73
2022-10-06T03:31:36.123Z,1.77
2022-10-06T03:34:24.092Z,1.90
2022-10-06T03:37:11.071Z,2.50
2022-10-06T03:39:58.029Z,2.20
2022-10-06T03:42:45.062Z,2.27
2022-10-06T03:45:32.075Z,2.03
2022-10-06T03:48:19.857Z,2.37
2022-10-06T03:51:13.551Z,2.07
2022-10-06T03:54:00.832Z,2.00
2022-10-06T03:56:48.433Z,2.50
2022-10-06T03:59:35.579Z,1.97
2022-10-06T04:02:23.033Z,1.73
2022-10-06T04:05:10.112Z,2.40
2022-10-06T04:07:57.500Z,2.00
2022-10-06T04:10:44.469Z,2.60
2022-10-06T04:13:31.426Z,1.93
2022-10-06T04:16:24.437Z,2.63
2022-10-06T04:19:13.105Z,2.40
2022-10-06T04:22:00.024Z,2.00
2022-10-06T04:24:47.012Z,2.03
2022-10-06T04:27:34.145Z,2.33
2022-10-06T04:30:21.077Z,2.17
2022-10-06T04:33:07.979Z,2.40
2022-10-06T04:36:04.449Z,2.53
2022-10-06T04:38:54.163Z,2.33
2022-10-06T04:41:42.568Z,2.17
2022-10-06T04:44:29.473Z,2.30
2022-10-06T04:47:16.427Z,2.43
2022-10-06T04:50:03.981Z,2.23
2022-10-06T04:52:51.465Z,2.10
2022-10-06T04:55:38.375Z,2.70
2022-10-06T04:58:26.145Z,2.47
2022-10-06T05:01:20.640Z,2.00
2022-10-06T05:04:07.676Z,2.50
2022-10-06T05:06:54.653Z,2.33
2022-10-06T05:09:41.689Z,2.20
2022-10-06T05:12:31.171Z,2.47
2022-10-06T05:15:18.161Z,2.40
2022-10-06T05:18:05.285Z,2.00
2022-10-06T05:21:11.017Z,2.27
2022-10-06T05:23:58.447Z,2.03
2022-10-06T05:26:45.822Z,2.77
2022-10-06T05:29:34.469Z,2.60
2022-10-06T05:32:21.444Z,2.47
2022-10-06T05:35:08.575Z,2.23
2022-10-06T05:37:55.584Z,2.27
2022-10-06T05:40:42.475Z,2.00
2022-10-06T05:43:29.769Z,1.87
2022-10-06T05:46:23.981Z,2.20
2022-10-06T05:49:12.999Z,2.27
2022-10-06T05:51:59.968Z,1.97
2022-10-06T05:54:47.129Z,2.43
2022-10-06T05:57:34.041Z,2.10
2022-10-06T06:00:21.004Z,2.13
2022-10-06T06:03:11.974Z,2.20
2022-10-06T06:05:58.956Z,1.93
2022-10-06T06:08:47.732Z,2.33
2022-10-06T06:11:37.754Z,2.60
2022-10-06T06:14:43.600Z,2.60
2022-10-06T06:17:33.521Z,1.90
2022-10-06T06:20:20.533Z,1.97
2022-10-06T06:23:07.578Z,1.90
2022-10-06T06:26:03.985Z,2.83
2022-10-06T06:28:56.543Z,2.57
2022-10-06T06:31:43.860Z,2.10
2022-10-06T06:34:31.226Z,2.27
2022-10-06T06:37:18.237Z,2.70
2022-10-06T06:40:07.932Z,2.13
2022-10-06T06:42:54.941Z,1.77
2022-10-06T06:45:42.077Z,2.23
2022-10-06T06:48:30.193Z,2.10
2022-10-06T06:51:17.747Z,2.13
2022-10-06T06:54:05.362Z,2.37
2022-10-06T06:56:52.495Z,2.80
2022-10-06T06:59:39.541Z,2.20
2022-10-06T07:02:29.899Z,2.07
2022-10-06T07:05:29.108Z,2.40
2022-10-06T07:08:20.673Z,2.33
2022-10-06T07:11:34.917Z,2.30
2022-10-06T07:14:24.290Z,2.10
2022-10-06T07:17:30.156Z,2.33
2022-10-06T07:20:35.986Z,2.90
2022-10-06T07:23:41.604Z,2.20
2022-10-06T07:26:31.149Z,2.27
2022-10-06T07:29:18.206Z,2.50
2022-10-06T07:32:05.367Z,2.07
2022-10-06T07:34:52.837Z,2.37
2022-10-06T07:37:40.777Z,2.40
2022-10-06T07:40:27.995Z,2.30
2022-10-06T07:43:14.969Z,2.30
2022-10-06T07:46:02.061Z,2.43
2022-10-06T07:48:49.321Z,2.50
2022-10-06T07:51:36.372Z,2.47
2022-10-06T07:54:27.404Z,3.23
2022-10-06T07:57:14.501Z,2.17
2022-10-06T08:00:05.434Z,2.43
2022-10-06T08:02:54.906Z,2.20
2022-10-06T08:05:42.040Z,2.50
2022-10-06T08:08:37.029Z,2.63
2022-10-06T08:11:24.250Z,2.40
2022-10-06T08:14:11.139Z,2.67
2022-10-06T08:17:01.345Z,2.10
2022-10-06T08:19:48.343Z,2.67
2022-10-06T08:22:36.405Z,2.40
2022-10-06T08:25:23.368Z,2.90
2022-10-06T08:28:11.470Z,2.13
2022-10-06T08:31:03.694Z,2.70
2022-10-06T08:33:54.994Z,2.57
2022-10-06T08:37:02.115Z,2.53
2022-10-06T08:39:51.913Z,2.30
2022-10-06T08:42:50.260Z,2.17
2022-10-06T08:45:43.472Z,2.60
2022-10-06T08:48:38.899Z,2.33
2022-10-06T08:51:28.870Z,2.20
2022-10-06T08:54:24.848Z,2.37
2022-10-06T08:57:23.614Z,2.07
2022-10-06T09:00:19.557Z,2.20
2022-10-06T09:03:29.794Z,2.20
2022-10-06T09:06:33.782Z,2.37
2022-10-06T09:09:35.075Z,2.30
2022-10-06T09:12:37.126Z,2.10
2022-10-06T09:15:30.185Z,2.63
2022-10-06T09:18:56.172Z,2.10
2022-10-06T09:21:50.481Z,2.33
2022-10-06T09:24:47.233Z,2.40
2022-10-06T09:27:36.686Z,2.37
2022-10-06T09:30:24.537Z,2.07
2022-10-06T09:33:20.897Z,1.70
2022-10-06T09:36:09.967Z,2.33
2022-10-06T09:39:00.085Z,1.60
2022-10-06T09:41:47.374Z,2.33
2022-10-06T09:44:59.634Z,1.90
2022-10-06T09:47:46.581Z,1.93
2022-10-06T09:50:35.271Z,2.30
2022-10-06T09:53:22.249Z,1.93
2022-10-06T09:56:19.445Z,1.97
2022-10-06T09:59:29.896Z,1.80
2022-10-06T10:02:30.632Z,2.03
2022-10-06T10:05:22.576Z,2.53
2022-10-06T10:08:27.563Z,1.83
2022-10-06T10:11:41.904Z,1.70
2022-10-06T10:14:37.058Z,1.97
2022-10-06T10:17:32.503Z,1.77
2022-10-06T10:20:28.280Z,2.33
2022-10-06T10:23:32.047Z,2.00
2022-10-06T10:26:39.124Z,1.97
2022-10-06T10:29:45.819Z,1.83
2022-10-06T10:33:01.538Z,1.77
2022-10-06T10:35:56.025Z,1.70
2022-10-06T10:38:45.111Z,2.10
2022-10-06T10:41:43.422Z,1.63
2022-10-06T10:44:43.101Z,1.90
2022-10-06T10:47:36.010Z,2.00
2022-10-06T10:50:29.066Z,2.23
2022-10-06T10:53:28.401Z,1.93
2022-10-06T10:56:19.530Z,1.97
2022-10-06T10:59:25.890Z,2.10
2022-10-06T11:02:18.795Z,1.87
2022-10-06T11:05:14.874Z,1.77
2022-10-06T11:08:16.770Z,1.70
2022-10-06T11:11:14.094Z,1.93
2022-10-06T11:14:04.816Z,1.87
2022-10-06T11:17:01.577Z,1.90
2022-10-06T11:20:19.370Z,2.10
2022-10-06T11:23:12.299Z,2.20
2022-10-06T11:26:05.349Z,1.90
2022-10-06T11:29:07.537Z,1.83
2022-10-06T11:32:18.149Z,1.53
2022-10-06T11:35:18.714Z,1.93
2022-10-06T11:38:31.916Z,1.70
2022-10-06T11:41:38.798Z,1.83
2022-10-06T11:44:31.166Z,2.13
2022-10-06T11:47:35.110Z,1.87
2022-10-06T11:50:37.944Z,1.83
2022-10-06T11:53:38.688Z,1.47
2022-10-06T11:56:39.389Z,1.50
2022-10-06T11:59:28.761Z,1.63
2022-10-06T12:02:31.147Z,1.77
2022-10-06T12:08:40.281Z,1.40
2022-10-06T12:11:42.278Z,1.60
2022-10-06T12:16:47.612Z,1.23
2022-10-06T12:18:07.532Z,1.50
2022-10-06T12:21:14.148Z,1.53
2022-10-06T12:24:20.796Z,1.40
2022-10-06T12:27:29.633Z,1.70
2022-10-06T12:30:22.642Z,1.50
2022-10-06T12:33:17.779Z,2.00
2022-10-06T12:36:15.636Z,1.77
2022-10-06T12:39:05.405Z,1.50
2022-10-06T12:42:06.590Z,1.60
2022-10-06T12:44:53.800Z,1.57
2022-10-06T12:47:46.812Z,1.80
2022-10-06T12:50:34.166Z,1.90
2022-10-06T12:53:32.513Z,1.50
2022-10-06T12:56:34.272Z,1.30
2022-10-06T12:59:33.912Z,1.90
2022-10-06T13:02:27.173Z,1.83
2022-10-06T13:05:14.739Z,1.40
2022-10-06T13:08:04.897Z,1.63
2022-10-06T13:11:10.247Z,1.80
2022-10-06T13:13:59.337Z,1.60
2022-10-06T13:16:47.974Z,2.00
2022-10-06T13:19:35.892Z,1.90
2022-10-06T13:22:22.827Z,1.97
2022-10-06T13:25:16.501Z,1.70
2022-10-06T13:28:03.721Z,1.67
2022-10-06T13:30:55.304Z,1.80
2022-10-06T13:36:52.512Z,1.70
2022-10-06T13:39:39.586Z,2.27
2022-10-06T13:42:28.249Z,1.97
2022-10-06T13:45:27.568Z,1.40
2022-10-06T13:48:19.254Z,1.80
2022-10-06T13:51:06.597Z,1.67
2022-10-06T13:53:54.472Z,2.27
2022-10-06T13:56:41.442Z,1.33
2022-10-06T13:59:38.640Z,2.00
2022-10-06T14:02:32.629Z,1.77
2022-10-06T14:05:27.182Z,1.80
2022-10-06T14:08:27.529Z,1.77
2022-10-06T14:11:23.134Z,1.70
2022-10-06T14:14:16.461Z,1.97
2022-10-06T14:17:23.103Z,1.50
2022-10-06T14:20:38.377Z,1.70
2022-10-06T14:26:13.366Z,1.63
2022-10-06T14:29:00.817Z,1.70
2022-10-06T14:35:22.771Z,1.80
2022-10-06T14:38:10.197Z,1.67
2022-10-06T14:41:00.956Z,1.80
2022-10-06T14:43:48.320Z,1.70
2022-10-06T14:46:46.556Z,1.60
2022-10-06T14:49:33.951Z,1.80
2022-10-06T14:52:22.302Z,1.83
2022-10-06T14:55:09.490Z,2.13
2022-10-06T14:57:59.687Z,1.60
2022-10-06T15:00:46.813Z,1.80
2022-10-06T15:03:35.492Z,1.70
2022-10-06T15:06:41.521Z,1.60
2022-10-06T15:09:31.089Z,1.73
2022-10-06T15:12:18.377Z,1.97
2022-10-06T15:15:07.689Z,1.70
2022-10-06T15:17:54.699Z,1.90
2022-10-06T15:20:41.654Z,1.60
2022-10-06T15:23:28.571Z,1.53
2022-10-06T15:26:33.953Z,2.17
2022-10-06T15:29:21.061Z,1.87
2022-10-06T15:32:09.475Z,1.60
2022-10-06T15:34:56.481Z,1.53
2022-10-06T15:37:43.518Z,1.80
2022-10-06T15:40:30.491Z,1.63
2022-10-06T15:43:37.418Z,2.00
2022-10-06T15:46:29.941Z,1.60
2022-10-06T15:49:21.775Z,1.77
2022-10-06T15:52:13.042Z,1.60
2022-10-06T15:55:00.090Z,1.80
2022-10-06T15:57:47.069Z,1.30
2022-10-06T16:00:34.314Z,2.00
2022-10-06T16:03:40.793Z,1.37
2022-10-06T16:06:46.610Z,1.97
2022-10-06T16:09:43.038Z,2.00
2022-10-06T16:12:30.586Z,1.70
2022-10-06T16:15:17.557Z,1.73
2022-10-06T16:18:04.574Z,1.87
2022-10-06T16:20:55.340Z,2.10
2022-10-06T16:23:42.352Z,1.67
2022-10-06T16:26:29.983Z,1.67
2022-10-06T16:29:19.195Z,1.50
2022-10-06T16:32:06.159Z,1.73
2022-10-06T16:34:53.181Z,2.30
2022-10-06T16:37:40.081Z,2.23
2022-10-06T16:40:27.089Z,1.53
2022-10-06T16:43:14.015Z,1.90
2022-10-06T16:46:06.333Z,1.80
2022-10-06T16:48:55.584Z,2.00
2022-10-06T16:51:45.756Z,1.80
2022-10-06T16:54:32.695Z,1.77
2022-10-06T16:57:19.754Z,1.43
2022-10-06T17:00:07.251Z,2.13
2022-10-06T17:02:54.717Z,2.03
2022-10-06T17:05:41.681Z,2.27
2022-10-06T17:08:28.739Z,1.67
2022-10-06T17:11:21.179Z,1.70
2022-10-06T17:14:08.318Z,1.63
2022-10-06T17:16:58.652Z,2.07
2022-10-06T17:19:45.589Z,2.07
2022-10-06T17:22:32.536Z,2.10
2022-10-06T17:25:19.485Z,1.70
2022-10-06T17:28:06.454Z,2.40
2022-10-06T17:30:54.047Z,2.00
2022-10-06T17:33:43.245Z,2.03
2022-10-06T17:36:30.346Z,1.87
2022-10-06T17:39:21.160Z,2.20
2022-10-06T17:42:08.314Z,2.10
2022-10-06T17:44:55.221Z,1.80
2022-10-06T17:47:42.158Z,1.83
2022-10-06T17:50:29.117Z,2.03
2022-10-06T17:53:16.053Z,2.17
2022-10-06T17:56:07.689Z,1.90
2022-10-06T17:59:00.665Z,2.03
2022-10-06T18:01:48.063Z,2.40
2022-10-06T18:04:36.036Z,2.20
2022-10-06T18:07:22.993Z,2.50
2022-10-06T18:10:28.933Z,3.10
2022-10-06T18:13:15.947Z,3.80
2022-10-06T18:16:02.908Z,2.77
2022-10-06T18:18:55.267Z,3.20
2022-10-06T18:21:44.653Z,3.00
2022-10-06T18:24:32.435Z,3.53
2022-10-06T18:27:19.694Z,3.43
2022-10-06T18:30:07.442Z,3.67
2022-10-06T18:36:19.133Z,3.70
2022-10-06T18:39:07.669Z,3.73
2022-10-06T18:41:55.114Z,3.93
2022-10-06T18:45:00.624Z,3.40
2022-10-06T18:48:06.334Z,3.60
2022-10-06T18:51:02.909Z,3.13
2022-10-06T18:53:50.546Z,3.17
2022-10-06T18:56:38.954Z,2.77
2022-10-06T18:59:27.900Z,2.97
2022-10-06T19:02:16.260Z,3.00
2022-10-06T19:05:04.912Z,3.23
2022-10-06T19:07:55.459Z,3.23
2022-10-06T19:11:02.332Z,3.40
2022-10-06T19:13:52.122Z,3.10
2022-10-06T19:16:39.462Z,3.30
2022-10-06T19:19:27.997Z,3.30
2022-10-06T19:22:15.627Z,3.90
2022-10-06T19:25:02.610Z,5.60
2022-10-06T19:27:51.193Z,5.30
2022-10-06T19:30:38.331Z,5.70
2022-10-06T19:33:26.867Z,5.07
2022-10-06T19:36:16.094Z,4.80
2022-10-06T19:39:05.773Z,4.17
2022-10-06T19:42:11.218Z,4.67
2022-10-06T19:44:58.330Z,4.40
2022-10-06T19:47:46.405Z,5.30
2022-10-06T19:50:33.906Z,4.40
2022-10-06T19:53:21.438Z,4.37
2022-10-06T19:56:08.449Z,4.73
2022-10-06T19:58:58.161Z,4.43
2022-10-06T20:01:49.043Z,4.67
2022-10-06T20:04:37.260Z,4.50
2022-10-06T20:07:28.039Z,5.03
2022-10-06T20:10:16.088Z,4.93
2022-10-06T20:13:03.583Z,5.13
2022-10-06T20:15:52.564Z,4.80
2022-10-06T20:18:42.728Z,4.40
2022-10-06T20:21:31.329Z,4.70
2022-10-06T20:24:23.193Z,5.20
2022-10-06T20:27:11.036Z,4.67
2022-10-06T20:29:58.692Z,4.43
2022-10-06T20:32:46.395Z,4.87
2022-10-06T20:35:34.002Z,4.70
2022-10-06T20:38:41.326Z,4.67
2022-10-06T20:41:30.392Z,4.63
2022-10-06T20:44:17.433Z,5.27
2022-10-06T20:47:04.594Z,5.50
2022-10-06T20:49:55.350Z,5.43
2022-10-06T20:52:43.311Z,5.50
2022-10-06T20:55:30.318Z,5.07
2022-10-06T20:58:17.237Z,4.93
2022-10-06T21:01:10.664Z,4.43
2022-10-06T21:03:57.875Z,4.80
2022-10-06T21:06:44.772Z,4.80
2022-10-06T21:09:31.742Z,5.03
2022-10-06T21:12:20.175Z,4.23
2022-10-06T21:15:07.744Z,5.30
2022-10-06T21:17:55.032Z,5.27
2022-10-06T21:20:45.233Z,4.97
2022-10-06T21:23:37.251Z,4.50
2022-10-06T21:26:26.561Z,4.97
2022-10-06T21:29:15.857Z,4.80
2022-10-06T21:32:03.184Z,4.40
2022-10-06T21:34:50.426Z,4.60
2022-10-06T21:37:37.732Z,4.40
2022-10-06T21:40:24.702Z,3.57
2022-10-06T21:43:11.619Z,4.33
2022-10-06T21:46:23.969Z,3.83
2022-10-06T21:49:09.797Z,3.90
2022-10-06T21:52:03.428Z,3.93
2022-10-06T21:54:50.454Z,3.57
2022-10-06T21:57:37.408Z,3.70
2022-10-06T22:00:24.297Z,4.47
2022-10-06T22:03:11.401Z,4.33
2022-10-06T22:06:06.822Z,3.73
2022-10-06T22:08:53.871Z,4.33
2022-10-06T22:11:41.484Z,4.37
2022-10-06T22:14:28.431Z,4.13
2022-10-06T22:17:15.531Z,4.00
2022-10-06T22:20:02.520Z,4.10
2022-10-06T22:22:51.507Z,3.90
2022-10-06T22:25:38.519Z,4.43
2022-10-06T22:28:25.602Z,3.40
2022-10-06T22:31:13.690Z,3.37
2022-10-06T22:34:04.846Z,3.40
2022-10-06T22:36:51.815Z,4.00
2022-10-06T22:39:38.719Z,4.10
2022-10-06T22:42:25.703Z,4.07
2022-10-06T22:45:12.691Z,3.83
2022-10-06T22:47:59.649Z,3.27
2022-10-06T22:50:47.956Z,3.10
2022-10-06T22:53:35.400Z,3.50
2022-10-06T22:56:22.816Z,3.17
2022-10-06T22:59:09.784Z,3.63
2022-10-06T23:01:58.440Z,3.10
2022-10-06T23:04:45.407Z,3.43
2022-10-06T23:07:32.303Z,3.33
2022-10-06T23:10:20.444Z,3.20
2022-10-06T23:13:07.336Z,3.37
2022-10-06T23:16:06.488Z,3.30
2022-10-06T23:18:55.584Z,3.27
2022-10-06T23:21:42.500Z,2.90
2022-10-06T23:24:29.477Z,3.07
2022-10-06T23:27:16.435Z,3.10
2022-10-06T23:30:04.968Z,3.03
2022-10-06T23:32:51.892Z,2.80
2022-10-06T23:35:38.802Z,3.63
2022-10-06T23:38:26.200Z,3.30
2022-10-06T23:41:13.613Z,4.10
2022-10-06T23:44:00.640Z,3.33
2022-10-06T23:46:47.551Z,3.73
2022-10-06T23:49:34.568Z,3.33
2022-10-06T23:52:21.484Z,3.30
2022-10-06T23:55:08.729Z,3.40
2022-10-06T23:57:55.641Z,2.93
